Time;durP1;ratioP1;P1;durP2;ratioP2;P2;SDS_P1;SDS_P2;PMS_P1;PMS_P2;Temp;Humidity;BMP_temperature;BMP_pressure;BME280_temperature;BME280_humidity;BME280_pressure;Samples;Min_cycle;Max_cycle;Signal;HPM_P1;HPM_P2
2023/10/08 00:00:53;;;;;;;0.70;0.50;;;13.00;99.90;;;;;;4959430;28;20169;-90
2023/10/08 00:03:27;;;;;;;1.00;0.57;;;12.90;99.90;;;;;;4958870;28;20169;-88
2023/10/08 00:05:56;;;;;;;0.70;0.60;;;13.00;99.90;;;;;;4958993;28;20169;-91
2023/10/08 00:08:22;;;;;;;0.70;0.60;;;13.00;99.90;;;;;;4959003;28;20177;-90
2023/10/08 00:10:48;;;;;;;0.70;0.60;;;13.00;99.90;;;;;;4958881;28;20180;-90
2023/10/08 00:13:18;;;;;;;1.05;0.90;;;13.00;99.90;;;;;;4958457;28;20308;-89
2023/10/08 00:15:54;;;;;;;0.95;0.70;;;13.00;99.90;;;;;;4958490;28;20219;-89
2023/10/08 00:18:22;;;;;;;2.20;1.02;;;12.90;99.90;;;;;;4959429;28;20179;-90
2023/10/08 00:21:15;;;;;;;1.15;0.80;;;12.90;99.90;;;;;;4959161;28;20267;-92
2023/10/08 00:23:35;;;;;;;1.48;0.60;;;12.90;99.90;;;;;;4975183;28;20559;-91
2023/10/08 00:26:04;;;;;;;0.68;0.57;;;12.80;99.90;;;;;;4959350;28;20203;-87
2023/10/08 00:28:31;;;;;;;0.70;0.55;;;12.70;99.90;;;;;;4958989;28;20293;-92
2023/10/08 00:31:05;;;;;;;0.70;0.40;;;12.70;99.90;;;;;;4962430;28;20191;-89
2023/10/08 00:33:31;;;;;;;0.65;0.40;;;12.70;99.90;;;;;;4962355;28;20271;-91
2023/10/08 00:36:18;;;;;;;1.13;0.30;;;12.70;99.90;;;;;;4962400;28;20219;-93
2023/10/08 00:38:45;;;;;;;1.65;0.30;;;12.70;99.90;;;;;;4962928;28;20180;-94
2023/10/08 00:41:33;;;;;;;0.63;0.30;;;12.70;99.90;;;;;;4962863;28;20307;-92
2023/10/08 00:44:00;;;;;;;0.20;0.20;;;12.70;99.90;;;;;;4948369;29;20265;-92
2023/10/08 00:46:35;;;;;;;0.20;0.20;;;12.70;99.90;;;;;;4938990;29;20181;-90
2023/10/08 00:51:47;;;;;;;2.63;0.90;;;12.60;99.90;;;;;;4944628;29;20205;-91
2023/10/08 00:54:17;;;;;;;3.28;1.10;;;12.40;99.90;;;;;;4941274;29;20209;-87
2023/10/08 00:56:53;;;;;;;4.20;0.95;;;12.20;99.90;;;;;;4940545;29;20617;-89
2023/10/08 00:59:23;;;;;;;2.05;0.75;;;12.00;99.90;;;;;;4940123;29;20208;-91
2023/10/08 01:01:58;;;;;;;4.35;1.15;;;11.80;99.90;;;;;;4940161;29;20536;-92
2023/10/08 01:04:27;;;;;;;5.13;1.33;;;11.70;99.90;;;;;;4940047;29;20185;-89
2023/10/08 01:07:15;;;;;;;4.00;0.80;;;11.60;99.90;;;;;;4939772;29;20178;-91
2023/10/08 01:09:50;;;;;;;2.83;0.90;;;11.50;99.90;;;;;;4940039;29;20270;-91
2023/10/08 01:15:04;;;;;;;4.10;1.00;;;11.50;99.90;;;;;;4940891;29;20708;-89
2023/10/08 01:17:32;;;;;;;4.15;0.85;;;11.40;99.90;;;;;;4939268;29;20252;-90
2023/10/08 01:20:50;;;;;;;3.60;1.00;;;11.40;99.90;;;;;;4939586;29;20273;-89
2023/10/08 01:22:47;;;;;;;2.63;0.90;;;11.40;99.90;;;;;;4930256;29;20692;-90
2023/10/08 01:25:21;;;;;;;3.53;0.98;;;11.40;99.90;;;;;;4940999;29;20210;-89
2023/10/08 01:27:47;;;;;;;5.53;1.13;;;11.40;99.90;;;;;;4939941;29;20181;-91
2023/10/08 01:30:17;;;;;;;4.18;1.00;;;11.40;99.90;;;;;;4939505;29;20502;-89
2023/10/08 01:32:44;;;;;;;6.35;1.17;;;11.30;99.90;;;;;;4939530;29;20162;-88
2023/10/08 01:35:23;;;;;;;5.50;1.10;;;11.30;99.90;;;;;;4938604;29;20221;-89
2023/10/08 01:37:52;;;;;;;4.93;1.10;;;11.30;99.90;;;;;;4939213;29;20197;-89
2023/10/08 01:40:21;;;;;;;3.17;1.20;;;11.30;99.90;;;;;;4938072;29;20193;-88
2023/10/08 01:42:51;;;;;;;6.70;1.20;;;11.30;99.90;;;;;;4940354;28;20182;-88
2023/10/08 01:45:18;;;;;;;6.97;2.05;;;11.30;99.90;;;;;;4954287;29;20275;-88
2023/10/08 01:47:45;;;;;;;6.20;0.82;;;11.30;99.90;;;;;;4941696;29;20526;-88
2023/10/08 01:50:22;;;;;;;5.05;1.00;;;11.30;99.90;;;;;;4942050;29;20177;-88
2023/10/08 01:52:51;;;;;;;6.50;1.23;;;11.40;99.90;;;;;;4959090;29;20167;-90
2023/10/08 01:55:44;;;;;;;2.85;1.00;;;11.30;99.90;;;;;;4941972;29;20543;-90
2023/10/08 01:58:13;;;;;;;3.53;1.23;;;11.40;99.90;;;;;;4942101;29;20608;-88
2023/10/08 02:00:45;;;;;;;3.83;1.40;;;11.40;99.90;;;;;;4941991;29;20186;-89
2023/10/08 02:03:16;;;;;;;2.67;0.98;;;11.30;99.90;;;;;;4941586;29;20176;-89
2023/10/08 02:05:48;;;;;;;2.33;0.98;;;11.30;99.90;;;;;;4941834;29;20181;-89
2023/10/08 02:08:16;;;;;;;4.30;1.15;;;11.30;99.90;;;;;;4941762;29;20232;-90
2023/10/08 02:10:46;;;;;;;7.80;1.33;;;11.30;99.90;;;;;;4941729;29;20691;-89
2023/10/08 02:13:13;;;;;;;5.68;1.20;;;11.30;99.90;;;;;;4942001;29;20631;-89
2023/10/08 02:15:47;;;;;;;4.50;1.10;;;11.30;99.90;;;;;;4951539;28;20216;-90
2023/10/08 02:18:13;;;;;;;6.28;1.17;;;11.30;99.90;;;;;;4960587;28;20176;-88
2023/10/08 02:20:39;;;;;;;3.92;1.17;;;11.30;99.90;;;;;;4960750;28;20191;-91
2023/10/08 02:23:05;;;;;;;7.45;1.05;;;11.40;99.90;;;;;;4960570;28;20575;-90
2023/10/08 02:25:37;;;;;;;2.97;1.00;;;11.40;99.90;;;;;;4960823;28;20551;-90
2023/10/08 02:28:03;;;;;;;5.35;1.05;;;11.40;99.90;;;;;;4960419;28;20562;-89
2023/10/08 02:30:29;;;;;;;3.95;1.08;;;11.40;99.90;;;;;;4960760;28;20180;-89
2023/10/08 02:32:55;;;;;;;4.72;0.98;;;11.40;99.90;;;;;;4960592;28;20232;-90
2023/10/08 02:35:22;;;;;;;4.45;0.93;;;11.40;99.90;;;;;;4960689;28;20220;-90
2023/10/08 02:37:48;;;;;;;2.28;1.00;;;11.40;99.90;;;;;;4960532;28;20173;-90
2023/10/08 02:40:25;;;;;;;3.17;0.90;;;11.50;99.90;;;;;;4960462;28;20187;-91
2023/10/08 02:42:54;;;;;;;5.32;1.20;;;11.50;99.90;;;;;;4960221;28;20184;-90
2023/10/08 02:45:26;;;;;;;4.70;1.48;;;11.50;99.90;;;;;;4960361;28;20208;-90
2023/10/08 02:47:52;;;;;;;5.05;1.35;;;11.50;99.90;;;;;;4960655;28;20232;-89
2023/10/08 02:50:22;;;;;;;2.92;1.08;;;11.50;99.90;;;;;;4960484;28;20189;-89
2023/10/08 02:52:51;;;;;;;1.50;0.63;;;11.50;99.90;;;;;;4960740;28;20180;-91
2023/10/08 02:55:51;;;;;;;6.03;1.00;;;11.50;99.90;;;;;;4960498;28;20224;-90
2023/10/08 02:58:18;;;;;;;6.75;1.17;;;11.50;99.90;;;;;;4973264;28;20673;-90
2023/10/08 03:00:49;;;;;;;2.95;1.23;;;11.50;99.90;;;;;;4960135;28;20266;-91
2023/10/08 03:03:18;;;;;;;2.42;1.10;;;11.50;99.90;;;;;;4959673;28;20183;-90
2023/10/08 03:05:52;;;;;;;3.47;1.00;;;11.50;99.90;;;;;;4960031;28;20181;-91
2023/10/08 03:08:24;;;;;;;5.28;1.00;;;11.60;99.90;;;;;;4959874;28;20665;-90
2023/10/08 03:11:02;;;;;;;3.45;1.10;;;11.50;99.90;;;;;;4977736;28;20161;-91
2023/10/08 03:13:28;;;;;;;2.90;0.90;;;11.50;99.90;;;;;;4960033;28;20192;-91
2023/10/08 03:18:36;;;;;;;3.22;0.80;;;11.50;99.90;;;;;;4977156;28;20165;-90
2023/10/08 03:21:20;;;;;;;3.15;0.93;;;11.40;99.90;;;;;;4959870;28;20182;-91
2023/10/08 03:23:50;;;;;;;6.85;1.48;;;11.50;99.90;;;;;;4959935;28;20181;-90
2023/10/08 03:29:05;;;;;;;3.75;1.00;;;11.50;99.90;;;;;;4977232;28;20203;-89
2023/10/08 03:34:13;;;;;;;2.47;1.00;;;11.50;99.90;;;;;;4977223;28;20175;-89
2023/10/08 03:36:45;;;;;;;7.60;1.33;;;11.50;99.90;;;;;;4959664;28;20184;-92
2023/10/08 03:39:15;;;;;;;8.30;1.63;;;11.50;99.90;;;;;;4959431;28;20654;-89
2023/10/08 03:41:41;;;;;;;2.88;1.30;;;11.50;99.90;;;;;;4959457;28;20185;-89
2023/10/08 03:44:16;;;;;;;7.38;0.93;;;11.50;99.90;;;;;;4964621;28;20221;-91
2023/10/08 03:46:48;;;;;;;2.38;0.82;;;11.50;99.90;;;;;;4958101;28;20184;-89
2023/10/08 03:51:52;;;;;;;3.45;1.00;;;11.40;99.90;;;;;;4976505;28;20164;-95
2023/10/08 03:54:34;;;;;;;5.00;1.02;;;11.40;99.90;;;;;;4959283;28;20211;-89
2023/10/08 03:57:13;;;;;;;5.18;1.42;;;11.50;99.90;;;;;;4959203;28;20263;-89
2023/10/08 03:59:40;;;;;;;3.90;0.90;;;11.50;99.90;;;;;;4960002;28;20631;-89
2023/10/08 04:02:24;;;;;;;2.42;0.90;;;11.50;99.90;;;;;;4958967;28;20202;-88
2023/10/08 04:04:56;;;;;;;5.00;1.10;;;11.50;99.90;;;;;;4964874;28;20191;-89
2023/10/08 04:12:41;;;;;;;2.25;0.90;;;11.40;99.90;;;;;;4983099;28;20618;-89
2023/10/08 04:15:07;;;;;;;2.10;0.70;;;11.50;99.90;;;;;;4965603;28;20208;-90
2023/10/08 04:17:43;;;;;;;5.15;1.05;;;11.40;99.90;;;;;;4965248;28;20176;-89
2023/10/08 04:20:32;;;;;;;2.00;0.85;;;11.40;99.90;;;;;;4965517;28;20593;-89
2023/10/08 04:22:55;;;;;;;3.05;0.80;;;11.50;99.90;;;;;;4982479;28;20212;-89
2023/10/08 04:25:21;;;;;;;2.75;0.90;;;11.50;99.90;;;;;;4965450;28;20181;-91
2023/10/08 04:27:51;;;;;;;2.30;0.90;;;11.50;99.90;;;;;;4965164;28;20227;-90
2023/10/08 04:30:16;;;;;;;6.07;1.08;;;11.50;99.90;;;;;;4965329;28;20193;-90
2023/10/08 04:32:42;;;;;;;5.57;1.50;;;11.50;99.90;;;;;;4964983;28;20176;-88
2023/10/08 04:35:14;;;;;;;2.70;0.98;;;11.40;99.90;;;;;;4965507;28;20212;-89
2023/10/08 04:37:43;;;;;;;2.28;1.00;;;11.40;99.90;;;;;;4982597;28;20511;-91
2023/10/08 04:40:16;;;;;;;6.07;1.27;;;11.50;99.90;;;;;;4965381;28;20263;-89
2023/10/08 04:42:44;;;;;;;3.50;0.80;;;11.50;99.90;;;;;;4965086;28;20223;-89
2023/10/08 04:45:14;;;;;;;1.77;0.90;;;11.40;99.90;;;;;;4965192;28;20673;-89
2023/10/08 04:47:43;;;;;;;4.50;1.00;;;11.50;99.90;;;;;;4964931;28;20404;-92
2023/10/08 04:50:15;;;;;;;2.70;0.90;;;11.40;99.90;;;;;;4965381;28;20180;-90
2023/10/08 04:52:58;;;;;;;3.38;1.00;;;11.40;99.90;;;;;;4965069;28;20267;-90
2023/10/08 04:55:28;;;;;;;3.40;1.10;;;11.40;99.90;;;;;;4965195;28;20244;-88
2023/10/08 04:58:12;;;;;;;2.22;1.20;;;11.40;99.90;;;;;;4946759;29;20738;-89
2023/10/08 05:03:43;;;;;;;2.92;1.38;;;11.40;99.90;;;;;;4940181;29;20232;-89
2023/10/08 05:06:26;;;;;;;2.55;1.00;;;11.50;99.90;;;;;;4945834;29;20173;-89
2023/10/08 05:08:58;;;;;;;3.03;1.10;;;11.40;99.90;;;;;;4945995;29;20181;-90
2023/10/08 05:11:25;;;;;;;4.28;1.05;;;11.40;99.90;;;;;;4945892;29;20177;-89
2023/10/08 05:14:05;;;;;;;3.05;1.00;;;11.40;99.90;;;;;;4945683;29;20177;-88
2023/10/08 05:16:41;;;;;;;6.07;1.27;;;11.40;99.90;;;;;;4959872;29;20189;-89
2023/10/08 05:19:37;;;;;;;4.97;1.10;;;11.40;99.90;;;;;;4942346;29;20212;-90
2023/10/08 05:22:17;;;;;;;2.63;0.80;;;11.40;99.90;;;;;;4959571;29;20181;-90
2023/10/08 05:49:25;;;;;;;5.13;1.13;;;11.40;99.90;;;;;;4978841;28;20604;-90
2023/10/08 05:55:25;;;;;;;3.72;1.10;;;11.40;99.90;;;;;;4978796;28;20231;-89
2023/10/08 06:00:29;;;;;;;6.50;1.10;;;11.40;99.90;;;;;;4978181;28;20174;-90
2023/10/08 06:13:09;;;;;;;3.25;1.10;;;11.40;99.90;;;;;;4978206;28;20188;-91
2023/10/08 06:18:29;;;;;;;3.70;1.10;;;11.40;99.90;;;;;;4958950;29;20165;-93
2023/10/08 06:21:08;;;;;;;5.32;1.05;;;11.50;99.90;;;;;;4958779;29;20176;-88
2023/10/08 06:23:38;;;;;;;5.22;1.10;;;11.40;99.90;;;;;;4958491;29;20165;-89
2023/10/08 06:28:41;;;;;;;1.58;1.00;;;11.50;99.90;;;;;;4958591;29;20165;-88
2023/10/08 06:31:17;;;;;;;3.13;1.23;;;11.50;99.90;;;;;;4941251;29;20651;-89
2023/10/08 06:33:44;;;;;;;4.43;1.08;;;11.50;99.90;;;;;;4941218;29;20312;-89
2023/10/08 06:38:38;;;;;;;6.60;1.17;;;11.50;99.90;;;;;;4958492;29;20181;-90
2023/10/08 06:43:46;;;;;;;4.53;1.40;;;11.60;99.90;;;;;;4957365;29;20303;-88
2023/10/08 06:46:12;;;;;;;6.97;1.33;;;11.60;99.90;;;;;;4954591;28;20686;-90
2023/10/08 06:48:43;;;;;;;3.35;1.52;;;11.70;99.90;;;;;;4959215;28;20679;-87
2023/10/08 06:51:12;;;;;;;7.15;1.30;;;11.70;99.90;;;;;;4959964;28;20188;-88
2023/10/08 06:53:46;;;;;;;6.20;1.55;;;11.70;99.90;;;;;;4959648;28;20554;-90
2023/10/08 06:56:16;;;;;;;2.60;1.15;;;11.70;99.90;;;;;;4959939;28;20248;-89
2023/10/08 06:58:52;;;;;;;4.03;1.52;;;11.80;99.90;;;;;;4959983;28;20185;-88
2023/10/08 07:01:22;;;;;;;7.28;1.55;;;11.80;99.90;;;;;;4977364;28;20160;-88
2023/10/08 07:04:03;;;;;;;8.20;1.80;;;11.80;99.90;;;;;;4959630;28;20612;-88
2023/10/08 07:06:33;;;;;;;2.50;1.10;;;11.90;99.90;;;;;;4959727;28;20640;-88
2023/10/08 07:09:04;;;;;;;9.23;1.85;;;11.90;99.90;;;;;;4959796;28;20176;-88
2023/10/08 07:11:34;;;;;;;8.30;1.60;;;11.90;99.90;;;;;;4959746;28;20200;-87
2023/10/08 07:14:04;;;;;;;5.15;1.52;;;12.00;99.90;;;;;;4959673;28;20259;-88
2023/10/08 07:16:30;;;;;;;7.88;3.90;;;12.00;99.90;;;;;;4959462;28;20258;-89
2023/10/08 07:19:02;;;;;;;4.55;1.48;;;12.00;99.90;;;;;;4959278;28;20173;-88
2023/10/08 07:21:29;;;;;;;3.53;1.45;;;12.00;99.90;;;;;;4959321;28;20188;-88
2023/10/08 07:23:59;;;;;;;5.32;1.73;;;11.90;99.90;;;;;;4958985;28;20187;-88
2023/10/08 07:26:40;;;;;;;4.57;1.50;;;12.00;99.90;;;;;;4962178;28;20185;-87
2023/10/08 07:29:09;;;;;;;7.30;2.17;;;12.10;99.90;;;;;;4939771;29;20177;-86
2023/10/08 07:31:37;;;;;;;5.80;1.52;;;12.10;99.90;;;;;;4939748;29;20267;-87
2023/10/08 07:34:15;;;;;;;4.28;1.73;;;12.10;99.90;;;;;;4939609;29;20511;-87
2023/10/08 07:36:43;;;;;;;5.00;1.60;;;12.10;99.90;;;;;;4939486;29;20537;-87
2023/10/08 07:39:22;;;;;;;5.13;1.40;;;12.20;99.90;;;;;;4938811;29;20173;-87
2023/10/08 07:41:49;;;;;;;5.90;1.75;;;12.20;99.90;;;;;;4939315;29;20185;-88
2023/10/08 07:44:15;;;;;;;6.65;1.70;;;12.30;99.90;;;;;;4939551;29;20232;-88
2023/10/08 07:46:41;;;;;;;6.28;1.67;;;12.40;99.90;;;;;;4957274;28;20181;-87
2023/10/08 07:49:07;;;;;;;4.78;1.50;;;12.40;99.90;;;;;;4958363;28;20267;-88
2023/10/08 07:51:33;;;;;;;7.53;1.55;;;12.50;99.90;;;;;;4958964;28;20184;-86
2023/10/08 07:53:59;;;;;;;5.35;1.60;;;12.50;99.90;;;;;;4958367;28;20183;-88
2023/10/08 07:56:25;;;;;;;7.05;1.42;;;12.50;99.90;;;;;;4958440;28;20311;-88
2023/10/08 07:58:55;;;;;;;4.68;1.50;;;12.60;99.90;;;;;;4958230;28;20259;-88
2023/10/08 08:01:21;;;;;;;5.25;1.50;;;12.60;99.90;;;;;;4975961;28;20169;-88
2023/10/08 08:03:48;;;;;;;5.32;1.40;;;12.70;99.90;;;;;;4958637;28;20268;-86
2023/10/08 08:06:15;;;;;;;6.18;1.67;;;12.70;99.90;;;;;;4975734;28;20173;-87
2023/10/08 08:08:46;;;;;;;5.20;1.52;;;12.80;99.90;;;;;;4958370;28;20215;-89
2023/10/08 08:11:12;;;;;;;3.80;1.30;;;12.80;99.90;;;;;;4958737;28;20579;-86
2023/10/08 08:13:44;;;;;;;6.97;1.50;;;12.70;99.90;;;;;;4958402;28;20211;-87
2023/10/08 08:16:18;;;;;;;10.00;1.50;;;12.80;99.90;;;;;;4958002;28;20211;-88
2023/10/08 08:18:52;;;;;;;3.97;1.30;;;12.70;99.90;;;;;;4957755;28;20179;-87
2023/10/08 08:21:19;;;;;;;7.65;1.15;;;12.90;99.90;;;;;;4975037;28;20650;-87
2023/10/08 08:23:49;;;;;;;4.70;1.25;;;12.90;99.90;;;;;;4958100;28;20184;-86
2023/10/08 08:26:28;;;;;;;3.75;1.10;;;12.90;99.90;;;;;;4957974;28;20181;-86
2023/10/08 08:28:59;;;;;;;6.30;1.88;;;13.00;99.90;;;;;;4958129;28;20271;-89
2023/10/08 08:31:26;;;;;;;7.88;3.20;;;13.00;99.90;;;;;;4958398;28;20264;-87
2023/10/08 08:33:53;;;;;;;4.20;1.20;;;13.00;99.90;;;;;;4957577;28;20235;-86
2023/10/08 08:36:20;;;;;;;10.95;3.33;;;13.00;99.90;;;;;;4957864;28;20212;-84
2023/10/08 08:38:47;;;;;;;8.75;1.83;;;13.00;99.90;;;;;;4958289;28;20208;-88
2023/10/08 08:41:17;;;;;;;5.78;2.78;;;12.90;99.90;;;;;;4958009;28;20208;-86
2023/10/08 08:43:47;;;;;;;6.60;1.52;;;12.90;99.90;;;;;;4975218;28;20228;-87
2023/10/08 08:46:13;;;;;;;6.47;1.40;;;13.00;99.90;;;;;;4957760;28;20255;-87
2023/10/08 08:48:46;;;;;;;4.30;1.50;;;12.90;99.90;;;;;;4957407;28;20181;-87
2023/10/08 08:51:13;;;;;;;7.35;1.20;;;12.80;99.90;;;;;;4960789;28;20515;-85
2023/10/08 08:53:40;;;;;;;8.13;1.48;;;12.80;99.90;;;;;;4961216;28;20627;-85
2023/10/08 08:56:09;;;;;;;7.32;1.60;;;12.70;99.90;;;;;;4961174;28;20537;-85
2023/10/08 08:58:39;;;;;;;8.75;1.80;;;12.70;99.90;;;;;;4961161;28;20176;-86
2023/10/08 09:01:12;;;;;;;6.07;2.17;;;12.70;99.90;;;;;;4961032;28;20176;-89
2023/10/08 09:03:39;;;;;;;4.07;1.60;;;12.80;99.90;;;;;;4960920;28;20223;-84
2023/10/08 09:06:05;;;;;;;4.03;1.23;;;12.80;99.90;;;;;;4961030;28;20189;-87
2023/10/08 09:08:41;;;;;;;5.47;1.30;;;12.80;99.90;;;;;;4978496;28;20177;-86
2023/10/08 09:11:08;;;;;;;4.45;1.50;;;12.80;99.90;;;;;;4978981;28;20164;-87
2023/10/08 09:13:35;;;;;;;4.07;1.17;;;12.80;99.90;;;;;;4961297;28;20180;-86
2023/10/08 09:16:11;;;;;;;4.30;1.15;;;12.80;99.90;;;;;;4961313;28;20586;-86
2023/10/08 09:18:37;;;;;;;5.50;1.40;;;12.90;99.90;;;;;;4977962;28;20208;-85
2023/10/08 09:21:14;;;;;;;5.15;1.40;;;12.90;99.90;;;;;;4961028;28;20215;-86
2023/10/08 09:23:44;;;;;;;3.88;1.63;;;12.80;99.90;;;;;;4961107;28;20259;-86
2023/10/08 09:26:16;;;;;;;6.03;1.00;;;12.80;99.90;;;;;;4943577;29;20181;-88
2023/10/08 09:28:51;;;;;;;2.20;1.10;;;12.90;99.90;;;;;;4948298;29;20169;-88
2023/10/08 09:31:17;;;;;;;5.05;1.35;;;12.90;99.90;;;;;;4935129;29;20224;-96
2023/10/08 09:33:53;;;;;;;6.82;1.30;;;13.00;99.90;;;;;;4945184;29;20232;-87
2023/10/08 09:36:19;;;;;;;4.63;1.30;;;13.10;99.90;;;;;;4945897;29;20549;-88
2023/10/08 09:38:48;;;;;;;3.85;1.33;;;13.30;99.90;;;;;;4942732;29;20185;-88
2023/10/08 09:41:14;;;;;;;4.15;1.20;;;13.40;99.90;;;;;;4944099;29;20177;-85
2023/10/08 09:43:41;;;;;;;4.95;1.35;;;13.40;99.90;;;;;;4942248;29;20229;-87
2023/10/08 09:46:19;;;;;;;4.40;1.58;;;13.50;99.90;;;;;;4942241;29;20283;-87
2023/10/08 09:48:55;;;;;;;6.78;1.35;;;13.50;99.90;;;;;;4959016;29;20165;-87
2023/10/08 09:51:21;;;;;;;5.65;1.40;;;13.60;99.90;;;;;;4958962;29;20169;-86
2023/10/08 09:54:01;;;;;;;7.90;2.00;;;13.60;99.90;;;;;;4942459;29;20193;-86
2023/10/08 09:56:31;;;;;;;4.40;1.20;;;13.60;99.90;;;;;;4941778;29;20217;-88
2023/10/08 09:58:59;;;;;;;4.65;1.20;;;13.60;99.90;;;;;;4942552;29;20189;-87
2023/10/08 10:01:26;;;;;;;3.97;1.50;;;13.60;99.90;;;;;;4941135;29;20523;-87
2023/10/08 10:03:52;;;;;;;7.97;1.55;;;13.60;99.90;;;;;;4959685;29;20197;-86
2023/10/08 10:06:18;;;;;;;8.52;1.60;;;13.70;99.90;;;;;;4941781;29;20216;-87
2023/10/08 10:08:48;;;;;;;5.10;1.00;;;13.80;99.90;;;;;;4941730;29;20181;-87
2023/10/08 10:11:15;;;;;;;5.38;1.55;;;14.00;99.90;;;;;;4941583;29;20268;-87
2023/10/08 10:13:44;;;;;;;5.68;1.70;;;14.00;99.90;;;;;;4942661;29;20575;-86
2023/10/08 10:16:17;;;;;;;5.15;1.38;;;13.90;99.90;;;;;;4956407;28;20302;-87
2023/10/08 10:18:48;;;;;;;5.45;1.63;;;13.80;99.90;;;;;;4960535;28;20173;-87
2023/10/08 10:21:13;;;;;;;6.68;1.50;;;13.70;99.90;;;;;;4960325;28;20263;-86
2023/10/08 10:23:45;;;;;;;4.18;2.20;;;13.70;99.90;;;;;;4977506;28;20240;-85
2023/10/08 10:26:33;;;;;;;5.40;1.20;;;13.80;99.90;;;;;;4960392;28;20251;-87
2023/10/08 10:29:11;;;;;;;7.10;1.20;;;13.90;99.90;;;;;;4960271;28;20172;-86
2023/10/08 10:31:46;;;;;;;6.03;1.38;;;14.00;99.90;;;;;;4960476;28;20168;-88
2023/10/08 10:34:17;;;;;;;5.85;1.58;;;14.20;99.90;;;;;;4960521;28;20670;-88
2023/10/08 10:36:49;;;;;;;8.25;1.60;;;14.30;99.90;;;;;;4960681;28;20192;-87
2023/10/08 10:39:30;;;;;;;6.05;1.58;;;14.40;99.90;;;;;;4961494;28;20180;-88
2023/10/08 10:42:05;;;;;;;6.50;1.30;;;14.50;99.90;;;;;;4960911;28;20223;-87
2023/10/08 10:44:32;;;;;;;5.70;1.40;;;14.40;99.90;;;;;;4942038;28;20221;-87
2023/10/08 10:49:52;;;;;;;5.95;1.50;;;14.10;99.90;;;;;;4940097;29;20222;-87
2023/10/08 10:52:44;;;;;;;5.85;1.38;;;13.90;99.90;;;;;;4939036;29;20181;-87
2023/10/08 10:58:11;;;;;;;4.00;1.13;;;13.80;99.90;;;;;;4939382;29;20166;-86
2023/10/08 11:03:15;;;;;;;3.53;0.93;;;14.00;99.90;;;;;;4933042;29;20174;-88
2023/10/08 11:05:47;;;;;;;7.05;1.40;;;14.10;99.90;;;;;;4919353;29;20186;-86
2023/10/08 11:08:15;;;;;;;3.22;1.05;;;14.20;99.90;;;;;;4918419;29;20175;-90
2023/10/08 11:10:49;;;;;;;2.17;0.95;;;14.30;99.90;;;;;;4919180;29;20621;-87
2023/10/08 11:13:15;;;;;;;3.60;1.30;;;14.40;99.90;;;;;;4920117;29;20159;-87
2023/10/08 11:15:42;;;;;;;5.22;1.65;;;14.50;99.90;;;;;;4928931;29;20558;-88
2023/10/08 11:18:15;;;;;;;4.15;1.10;;;14.60;99.90;;;;;;4938212;29;20189;-88
2023/10/08 11:20:44;;;;;;;5.18;1.33;;;14.60;99.90;;;;;;4938808;29;20174;-87
2023/10/08 11:23:21;;;;;;;5.88;1.25;;;14.70;99.90;;;;;;4938441;29;20281;-89
2023/10/08 11:26:04;;;;;;;4.75;1.10;;;14.70;99.90;;;;;;4938543;29;20174;-87
2023/10/08 11:28:41;;;;;;;2.95;1.10;;;14.80;99.90;;;;;;4937265;29;20186;-88
2023/10/08 11:31:10;;;;;;;4.40;2.53;;;14.70;99.90;;;;;;4937069;29;20184;-87
2023/10/08 11:33:53;;;;;;;2.13;1.80;;;14.80;99.90;;;;;;4937349;29;20181;-88
2023/10/08 11:36:27;;;;;;;5.43;1.40;;;14.70;99.90;;;;;;4938150;29;20224;-87
2023/10/08 11:39:08;;;;;;;5.55;1.45;;;14.70;99.90;;;;;;4936717;29;20194;-89
2023/10/08 11:41:52;;;;;;;4.18;1.23;;;14.70;99.90;;;;;;4937487;29;20273;-89
2023/10/08 11:44:23;;;;;;;2.25;0.98;;;14.80;99.90;;;;;;4936661;28;20275;-87
2023/10/08 11:46:52;;;;;;;3.03;1.08;;;15.00;99.90;;;;;;4936908;29;20538;-89
2023/10/08 11:49:25;;;;;;;2.72;0.90;;;15.20;99.90;;;;;;4937149;29;20177;-88
2023/10/08 11:51:55;;;;;;;2.97;0.93;;;15.30;99.90;;;;;;4936936;29;20185;-89
2023/10/08 11:54:23;;;;;;;3.30;0.82;;;15.50;99.90;;;;;;4936618;29;20170;-91
2023/10/08 11:56:50;;;;;;;4.90;1.13;;;15.70;99.90;;;;;;4936685;29;20293;-89
2023/10/08 11:59:18;;;;;;;3.45;1.00;;;15.80;99.90;;;;;;4936540;29;20178;-88
2023/10/08 12:01:44;;;;;;;4.25;1.08;;;15.90;99.90;;;;;;4936582;29;20189;-85
2023/10/08 12:04:15;;;;;;;8.95;1.23;;;16.00;99.90;;;;;;4936519;29;20535;-89
2023/10/08 12:06:51;;;;;;;4.95;0.98;;;16.10;99.90;;;;;;4936710;29;20174;-88
2023/10/08 12:09:21;;;;;;;2.45;0.82;;;16.20;99.90;;;;;;4936684;29;20517;-90
2023/10/08 12:11:48;;;;;;;3.47;1.13;;;16.10;99.90;;;;;;4936732;29;20173;-90
2023/10/08 12:14:14;;;;;;;4.63;1.27;;;16.10;99.90;;;;;;4909520;29;20187;-89
2023/10/08 12:16:41;;;;;;;4.75;1.35;;;16.10;99.90;;;;;;4934040;29;20503;-89
2023/10/08 12:19:16;;;;;;;2.58;1.20;;;16.00;99.90;;;;;;4936881;29;20181;-91
2023/10/08 12:21:46;;;;;;;2.40;1.10;;;15.80;99.90;;;;;;4936759;29;20189;-91
2023/10/08 12:24:12;;;;;;;2.88;1.13;;;15.70;99.90;;;;;;4937286;29;20694;-91
2023/10/08 12:26:47;;;;;;;4.03;1.13;;;15.60;99.90;;;;;;4940430;29;20229;-90
2023/10/08 12:29:14;;;;;;;2.70;0.95;;;15.60;99.90;;;;;;4940426;29;20177;-90
2023/10/08 12:31:41;;;;;;;3.90;1.00;;;15.90;99.90;;;;;;4941564;29;20189;-87
2023/10/08 12:34:11;;;;;;;5.45;1.13;;;15.90;99.90;;;;;;4940973;29;20170;-90
2023/10/08 12:36:37;;;;;;;5.80;1.30;;;15.90;99.90;;;;;;4940278;29;20550;-87
2023/10/08 12:39:11;;;;;;;3.97;1.00;;;16.00;99.90;;;;;;4940268;29;20249;-88
2023/10/08 12:41:41;;;;;;;3.58;1.10;;;16.10;99.90;;;;;;4941499;29;20166;-91
2023/10/08 12:44:08;;;;;;;3.22;1.25;;;16.30;99.90;;;;;;4963525;28;20227;-90
2023/10/08 12:46:34;;;;;;;4.10;1.42;;;16.50;99.90;;;;;;4946079;29;20268;-92
2023/10/08 12:49:02;;;;;;;4.72;1.40;;;16.50;99.90;;;;;;4960378;29;20185;-90
2023/10/08 12:51:32;;;;;;;4.80;1.42;;;16.40;99.90;;;;;;4943759;29;20193;-91
2023/10/08 12:54:06;;;;;;;3.58;1.35;;;16.50;99.90;;;;;;4943458;29;20260;-91
2023/10/08 12:56:38;;;;;;;3.88;1.00;;;16.60;99.90;;;;;;4943145;29;20217;-91
2023/10/08 12:59:07;;;;;;;2.78;1.13;;;16.60;99.90;;;;;;4943123;29;20173;-91
2023/10/08 13:01:35;;;;;;;5.15;1.33;;;16.50;99.90;;;;;;4943661;29;20217;-88
2023/10/08 13:04:06;;;;;;;3.70;1.13;;;16.50;99.90;;;;;;4942609;29;20616;-90
2023/10/08 13:06:37;;;;;;;2.90;1.30;;;16.50;99.90;;;;;;4942832;29;20178;-88
2023/10/08 13:09:09;;;;;;;4.40;1.40;;;16.50;99.90;;;;;;4942987;29;20624;-90
2023/10/08 13:11:35;;;;;;;4.68;1.10;;;16.60;99.90;;;;;;4943044;29;20240;-90
2023/10/08 13:14:00;;;;;;;4.03;1.10;;;16.80;99.90;;;;;;4942705;29;20280;-90
2023/10/08 13:16:31;;;;;;;4.57;1.10;;;17.00;99.90;;;;;;4942716;29;20256;-90
2023/10/08 13:18:59;;;;;;;3.63;0.98;;;16.90;99.90;;;;;;4942457;29;20165;-90
2023/10/08 13:21:27;;;;;;;3.90;1.50;;;16.80;99.90;;;;;;4943028;29;20208;-91
2023/10/08 13:23:52;;;;;;;4.10;1.20;;;16.60;99.90;;;;;;4943016;29;20177;-91
2023/10/08 13:26:22;;;;;;;7.35;1.65;;;16.60;99.90;;;;;;4942662;29;20227;-91
2023/10/08 13:28:48;;;;;;;2.72;1.27;;;16.50;99.90;;;;;;4942579;29;20545;-89
2023/10/08 13:31:16;;;;;;;6.00;1.33;;;16.50;99.90;;;;;;4942655;29;20515;-89
2023/10/08 13:33:44;;;;;;;3.75;1.65;;;16.40;99.90;;;;;;4942259;29;20513;-90
2023/10/08 13:36:11;;;;;;;3.65;1.52;;;16.40;99.90;;;;;;4958304;28;20213;-90
2023/10/08 13:38:37;;;;;;;3.67;1.30;;;16.40;99.90;;;;;;4942416;29;20189;-89
2023/10/08 13:41:20;;;;;;;9.23;1.60;;;16.60;99.90;;;;;;4959649;29;20182;-90
2023/10/08 13:43:48;;;;;;;9.40;1.50;;;16.60;99.90;;;;;;4959338;29;20702;-92
2023/10/08 13:46:18;;;;;;;5.25;1.55;;;16.60;99.90;;;;;;4956617;28;20247;-92
2023/10/08 13:48:47;;;;;;;3.45;1.23;;;16.40;99.90;;;;;;4961191;28;20251;-90
2023/10/08 13:51:14;;;;;;;5.88;1.50;;;16.20;99.90;;;;;;4961406;28;20181;-91
2023/10/08 13:53:52;;;;;;;3.58;1.20;;;16.10;99.90;;;;;;4961471;28;20195;-91
2023/10/08 13:56:26;;;;;;;4.65;1.30;;;16.10;99.90;;;;;;4961561;28;20214;-91
2023/10/08 13:59:11;;;;;;;4.30;1.40;;;16.30;99.90;;;;;;4961680;28;20207;-91
2023/10/08 14:01:40;;;;;;;5.10;1.45;;;16.20;99.90;;;;;;4961329;28;20176;-92
2023/10/08 14:04:07;;;;;;;5.28;1.40;;;16.10;99.90;;;;;;4961181;28;20177;-92
2023/10/08 14:06:34;;;;;;;4.15;1.20;;;16.20;99.90;;;;;;4961125;28;20177;-93
2023/10/08 14:09:00;;;;;;;3.65;1.40;;;16.40;99.90;;;;;;4960988;28;20239;-91
2023/10/08 14:11:30;;;;;;;3.97;1.58;;;16.40;99.90;;;;;;4961222;28;20172;-89
2023/10/08 14:13:57;;;;;;;4.18;1.15;;;16.30;99.90;;;;;;4960813;28;20188;-91
2023/10/08 14:16:28;;;;;;;5.00;1.23;;;16.20;99.90;;;;;;4960703;28;20216;-92
2023/10/08 14:18:55;;;;;;;3.70;1.33;;;16.10;99.90;;;;;;4960506;28;20176;-92
2023/10/08 14:21:24;;;;;;;7.60;1.50;;;15.80;99.90;;;;;;4961304;28;20600;-92
2023/10/08 14:23:52;;;;;;;5.63;1.25;;;15.70;99.90;;;;;;4961224;28;20646;-91
2023/10/08 14:26:21;;;;;;;3.80;1.30;;;15.50;99.90;;;;;;4978010;28;20173;-91
2023/10/08 14:28:52;;;;;;;4.53;1.20;;;15.50;99.90;;;;;;4960836;28;20180;-92
2023/10/08 14:31:22;;;;;;;5.45;1.45;;;15.40;99.90;;;;;;4960885;28;20175;-93